createdAt,value
2019-02-25T00:00:56.309Z,-8.15
2019-02-25T00:03:28.459Z,-8.15
2019-02-25T00:05:58.871Z,-8.09
2019-02-25T00:08:29.750Z,-7.86
2019-02-25T00:11:00.027Z,-7.69
2019-02-25T00:13:30.422Z,-7.70
2019-02-25T00:16:02.088Z,-8.06
2019-02-25T00:18:34.006Z,-8.24
2019-02-25T00:21:04.774Z,-8.40
2019-02-25T00:23:35.357Z,-8.33
2019-02-25T00:26:05.807Z,-8.14
2019-02-25T00:28:36.655Z,-8.28
2019-02-25T00:31:06.952Z,-8.15
2019-02-25T00:33:37.263Z,-8.32
2019-02-25T00:36:08.046Z,-8.46
2019-02-25T00:38:38.318Z,-8.38
2019-02-25T00:41:08.818Z,-8.39
2019-02-25T00:43:39.414Z,-8.41
2019-02-25T00:46:10.194Z,-8.43
2019-02-25T00:48:40.588Z,-8.28
2019-02-25T00:51:11.328Z,-8.01
2019-02-25T00:53:42.807Z,-7.83
2019-02-25T00:56:13.234Z,-7.68
2019-02-25T00:58:43.546Z,-7.73
2019-02-25T01:01:13.887Z,-7.82
2019-02-25T01:03:44.886Z,-7.73
2019-02-25T01:06:15.374Z,-7.62
2019-02-25T01:08:45.712Z,-9.73
2019-02-25T01:11:16.488Z,-7.65
2019-02-25T01:13:47.080Z,-7.61
2019-02-25T01:16:17.428Z,-7.57
2019-02-25T01:18:48.122Z,-7.37
2019-02-25T01:21:18.545Z,-7.42
2019-02-25T01:23:49.057Z,-7.72
2019-02-25T01:26:19.773Z,-8.14
2019-02-25T01:28:50.460Z,-8.39
2019-02-25T01:31:20.787Z,-8.46
2019-02-25T01:33:51.198Z,-8.48
2019-02-25T01:36:21.893Z,-8.66
2019-02-25T01:38:52.194Z,-8.73
2019-02-25T01:41:22.572Z,-8.62
2019-02-25T01:43:53.436Z,-8.11
2019-02-25T01:46:23.965Z,-7.86
2019-02-25T01:48:54.300Z,-7.65
2019-02-25T01:51:25.055Z,-7.71
2019-02-25T01:53:55.474Z,-7.77
2019-02-25T01:56:25.871Z,-7.76
2019-02-25T01:58:56.203Z,-7.77
2019-02-25T02:01:26.614Z,-7.77
2019-02-25T02:03:57.159Z,-7.76
2019-02-25T02:06:27.669Z,-7.76
2019-02-25T02:08:58.197Z,-7.74
2019-02-25T02:11:28.943Z,-7.76
2019-02-25T02:13:59.670Z,-7.70
2019-02-25T02:16:30.001Z,-7.80
2019-02-25T02:19:00.647Z,-7.86
2019-02-25T02:21:31.178Z,-7.99
2019-02-25T02:24:02.466Z,-7.95
2019-02-25T02:26:32.946Z,-7.92
2019-02-25T02:29:03.252Z,-7.82
2019-02-25T02:31:33.814Z,-7.85
2019-02-25T02:34:04.556Z,-7.82
2019-02-25T02:36:34.847Z,-7.75
2019-02-25T02:39:07.382Z,-7.83
2019-02-25T02:42:15.462Z,-7.85
2019-02-25T02:44:47.675Z,-7.84
2019-02-25T02:47:37.624Z,-7.89
2019-02-25T02:50:11.067Z,-7.97
2019-02-25T02:52:41.338Z,-7.99
2019-02-25T02:55:11.726Z,-8.10
2019-02-25T02:57:42.591Z,-8.11
2019-02-25T03:00:15.981Z,-8.51
2019-02-25T03:02:46.858Z,-8.77
2019-02-25T03:05:19.034Z,-8.90
2019-02-25T03:07:49.798Z,-8.61
2019-02-25T03:10:20.664Z,-8.49
2019-02-25T03:12:50.941Z,-8.21
2019-02-25T03:15:22.291Z,-8.03
2019-02-25T03:17:52.991Z,-8.18
2019-02-25T03:20:23.257Z,-8.25
2019-02-25T03:22:53.585Z,-8.39
2019-02-25T03:25:24.369Z,-8.40
2019-02-25T03:27:54.886Z,-8.49
2019-02-25T03:30:26.272Z,-8.45
2019-02-25T03:32:56.989Z,-8.29
2019-02-25T03:35:27.281Z,-8.38
2019-02-25T03:37:57.931Z,-8.27
2019-02-25T03:40:28.203Z,-8.25
2019-02-25T03:42:58.573Z,-8.01
2019-02-25T03:45:29.317Z,-8.00
2019-02-25T03:47:59.823Z,-8.05
2019-02-25T03:50:30.413Z,-8.11
2019-02-25T03:53:00.820Z,-8.17
2019-02-25T03:55:31.528Z,-8.22
2019-02-25T03:58:01.861Z,-8.24
2019-02-25T04:00:32.494Z,-8.25
2019-02-25T04:03:03.234Z,-8.25
2019-02-25T04:05:33.748Z,-8.29
2019-02-25T04:08:04.341Z,-8.28
2019-02-25T04:10:34.756Z,-8.27
2019-02-25T04:13:05.519Z,-8.69
2019-02-25T04:15:39.244Z,-8.71
2019-02-25T04:18:09.567Z,-8.49
2019-02-25T04:20:39.934Z,-8.82
2019-02-25T04:23:10.602Z,-9.11
2019-02-25T04:25:40.910Z,-8.92
2019-02-25T04:28:11.355Z,-8.75
2019-02-25T04:30:42.037Z,-8.65
2019-02-25T04:33:12.323Z,-8.60
2019-02-25T04:35:42.643Z,-8.67
2019-02-25T04:38:13.380Z,-8.62
2019-02-25T04:40:44.051Z,-8.79
2019-02-25T04:43:14.566Z,-9.10
2019-02-25T04:45:45.193Z,-9.43
2019-02-25T04:48:15.643Z,-9.40
2019-02-25T04:50:46.263Z,-9.47
2019-02-25T04:53:16.580Z,-9.61
2019-02-25T04:55:46.867Z,-9.60
2019-02-25T04:58:17.540Z,-9.79
2019-02-25T05:00:48.053Z,-9.76
2019-02-25T05:03:18.326Z,-9.53
2019-02-25T05:05:48.828Z,-9.31
2019-02-25T05:08:19.362Z,-9.43
2019-02-25T05:10:50.123Z,-9.55
2019-02-25T05:13:20.416Z,-9.64
2019-02-25T05:15:52.005Z,-9.35
2019-02-25T05:18:23.639Z,-9.27
2019-02-25T05:20:54.030Z,-9.15
2019-02-25T05:23:25.585Z,-9.21
2019-02-25T05:25:55.950Z,-9.08
2019-02-25T05:28:26.613Z,-8.99
2019-02-25T05:30:56.924Z,-9.24
2019-02-25T05:33:27.715Z,-9.11
2019-02-25T05:35:58.364Z,-9.22
2019-02-25T05:38:28.706Z,-9.27
2019-02-25T05:40:59.214Z,-9.18
2019-02-25T05:43:29.908Z,-9.11
2019-02-25T05:46:00.323Z,-9.11
2019-02-25T05:48:30.751Z,-9.08
2019-02-25T05:51:01.144Z,-8.90
2019-02-25T05:53:31.741Z,-8.61
2019-02-25T05:56:02.181Z,-8.58
2019-02-25T05:58:33.035Z,-8.64
2019-02-25T06:01:03.492Z,-8.66
2019-02-25T06:03:33.901Z,-8.26
2019-02-25T06:06:04.635Z,-8.11
2019-02-25T06:08:35.340Z,-7.95
2019-02-25T06:11:05.678Z,-7.68
2019-02-25T06:13:36.365Z,-7.49
2019-02-25T06:16:06.843Z,-7.46
2019-02-25T06:18:37.778Z,-7.31
2019-02-25T06:21:08.062Z,-7.18
2019-02-25T06:23:38.702Z,-7.18
2019-02-25T06:26:09.407Z,-7.20
2019-02-25T06:28:40.930Z,-7.09
2019-02-25T06:31:11.224Z,-7.06
2019-02-25T06:33:41.889Z,-7.03
2019-02-25T06:36:12.575Z,-6.90
2019-02-25T06:38:42.916Z,-6.71
2019-02-25T06:41:13.410Z,-6.70
2019-02-25T06:43:45.032Z,-6.71
2019-02-25T06:46:15.639Z,-6.71
2019-02-25T06:48:46.097Z,-6.64
2019-02-25T06:51:16.374Z,-6.49
2019-02-25T06:53:47.244Z,-6.41
2019-02-25T06:56:17.862Z,-6.48
2019-02-25T06:58:48.205Z,-6.41
2019-02-25T07:01:18.788Z,-6.09
2019-02-25T07:04:08.353Z,-6.01
2019-02-25T07:06:55.873Z,-6.07
2019-02-25T07:09:47.416Z,-5.96
2019-02-25T07:12:35.351Z,-5.79
2019-02-25T07:15:31.156Z,-5.59
2019-02-25T07:18:29.488Z,-5.37
2019-02-25T07:21:11.435Z,-5.25
2019-02-25T07:23:59.732Z,-4.96
2019-02-25T07:26:42.463Z,-4.91
2019-02-25T07:29:20.499Z,-4.73
2019-02-25T07:32:08.652Z,-4.57
2019-02-25T07:34:57.001Z,-4.45
2019-02-25T07:37:42.120Z,-4.31
2019-02-25T07:40:30.412Z,-4.23
2019-02-25T07:43:26.080Z,-4.14
2019-02-25T07:46:06.665Z,-3.92
2019-02-25T07:49:14.376Z,-3.79
2019-02-25T07:51:54.951Z,-3.63
2019-02-25T07:54:42.884Z,-3.36
2019-02-25T07:57:38.683Z,-3.35
2019-02-25T08:00:23.285Z,-3.19
2019-02-25T08:03:18.807Z,-3.07
2019-02-25T08:06:07.657Z,-3.15
2019-02-25T08:09:02.936Z,-3.35
2019-02-25T08:11:53.825Z,-3.36
2019-02-25T08:14:49.413Z,-3.22
2019-02-25T08:17:54.075Z,-2.90
2019-02-25T08:20:46.652Z,-2.72
2019-02-25T08:23:40.779Z,-2.56
2019-02-25T08:26:38.235Z,-2.55
2019-02-25T08:29:27.472Z,-2.57
2019-02-25T08:32:24.031Z,-2.34
2019-02-25T08:35:19.055Z,-2.20
2019-02-25T08:38:21.268Z,-1.95
2019-02-25T08:41:16.066Z,-1.70
2019-02-25T08:44:05.353Z,-1.38
2019-02-25T08:46:54.950Z,-1.28
2019-02-25T08:49:35.431Z,-0.93
2019-02-25T08:52:05.718Z,-0.94
2019-02-25T08:54:36.100Z,-0.92
2019-02-25T08:57:06.903Z,-0.84
2019-02-25T08:59:37.873Z,-0.45
2019-02-25T09:02:08.434Z,-0.43
2019-02-25T09:04:39.332Z,-0.57
2019-02-25T09:07:09.657Z,-0.35
2019-02-25T09:09:40.172Z,-0.08
2019-02-25T09:12:10.438Z,0.07
2019-02-25T09:14:41.310Z,0.23
2019-02-25T09:17:12.340Z,0.40
2019-02-25T09:19:42.665Z,0.37
2019-02-25T09:22:13.507Z,0.78
2019-02-25T09:24:43.934Z,0.81
2019-02-25T09:27:14.387Z,1.05
2019-02-25T09:29:45.080Z,1.13
2019-02-25T09:32:18.968Z,1.17
2019-02-25T09:34:49.080Z,1.05
2019-02-25T09:37:19.676Z,1.22
2019-02-25T09:39:51.964Z,1.29
2019-02-25T09:42:24.225Z,1.69
2019-02-25T09:44:54.983Z,1.82
2019-02-25T09:47:25.670Z,1.95
2019-02-25T09:49:55.994Z,2.45
2019-02-25T09:52:26.419Z,2.96
2019-02-25T09:54:56.675Z,3.12
2019-02-25T09:57:26.975Z,3.78
2019-02-25T09:59:57.671Z,4.30
2019-02-25T10:02:27.966Z,4.20
2019-02-25T10:04:58.301Z,4.16
2019-02-25T10:07:28.948Z,4.77
2019-02-25T10:09:59.548Z,5.18
2019-02-25T10:12:29.906Z,5.62
2019-02-25T10:15:00.551Z,5.50
2019-02-25T10:17:31.233Z,5.94
2019-02-25T10:20:01.754Z,6.06
2019-02-25T10:22:33.226Z,6.25
2019-02-25T10:25:03.798Z,6.53
2019-02-25T10:27:34.080Z,6.50
2019-02-25T10:30:05.462Z,6.87
2019-02-25T10:32:36.167Z,6.61
2019-02-25T10:35:09.314Z,6.41
2019-02-25T10:37:41.420Z,6.90
2019-02-25T10:40:13.661Z,6.82
2019-02-25T10:42:45.154Z,6.90
2019-02-25T10:45:17.342Z,6.81
2019-02-25T10:47:49.454Z,6.82
2019-02-25T10:50:20.191Z,6.72
2019-02-25T10:52:50.606Z,6.12
2019-02-25T10:55:27.683Z,6.04
2019-02-25T10:57:59.768Z,5.88
2019-02-25T11:00:30.765Z,6.25
2019-02-25T11:03:01.126Z,6.15
2019-02-25T11:05:31.425Z,6.52
2019-02-25T11:08:06.942Z,6.43
2019-02-25T11:10:59.506Z,6.67
2019-02-25T11:13:31.810Z,6.32
2019-02-25T11:16:02.310Z,6.63
2019-02-25T11:18:32.679Z,6.79
2019-02-25T11:21:04.168Z,6.64
2019-02-25T11:23:35.411Z,6.80
2019-02-25T11:26:05.699Z,7.27
2019-02-25T11:28:38.562Z,7.15
2019-02-25T11:31:08.480Z,7.24
2019-02-25T11:33:38.928Z,7.09
2019-02-25T11:36:10.556Z,6.85
2019-02-25T11:38:41.878Z,7.00
2019-02-25T11:41:12.167Z,7.18
2019-02-25T11:43:44.094Z,7.05
2019-02-25T11:46:15.482Z,7.52
2019-02-25T11:48:45.815Z,7.32
2019-02-25T11:51:16.552Z,7.50
2019-02-25T11:53:47.600Z,7.39
2019-02-25T11:56:17.983Z,6.90
2019-02-25T11:58:48.387Z,6.81
2019-02-25T12:01:18.761Z,6.55
2019-02-25T12:03:49.339Z,5.11
2019-02-25T12:06:20.046Z,6.22
2019-02-25T12:08:50.361Z,6.18
2019-02-25T12:11:20.894Z,6.45
2019-02-25T12:13:51.733Z,6.42
2019-02-25T12:16:22.060Z,6.47
2019-02-25T12:18:52.501Z,6.56
2019-02-25T12:21:22.986Z,6.80
2019-02-25T12:23:53.841Z,7.20
2019-02-25T12:26:24.493Z,7.55
2019-02-25T12:28:55.084Z,7.72
2019-02-25T12:31:25.394Z,7.60
2019-02-25T12:33:56.168Z,7.70
2019-02-25T12:36:26.459Z,7.93
2019-02-25T12:38:56.771Z,8.05
2019-02-25T12:41:27.564Z,8.42
2019-02-25T12:43:57.952Z,8.23
2019-02-25T12:46:28.257Z,8.42
2019-02-25T12:48:58.879Z,8.36
2019-02-25T12:51:29.308Z,8.35
2019-02-25T12:53:59.997Z,8.21
2019-02-25T12:56:30.257Z,8.78
2019-02-25T12:59:00.608Z,8.89
2019-02-25T13:01:30.949Z,8.98
2019-02-25T13:04:01.267Z,9.17
2019-02-25T13:06:31.749Z,8.48
2019-02-25T13:09:02.486Z,8.88
2019-02-25T13:11:34.631Z,9.56
2019-02-25T13:14:04.901Z,9.68
2019-02-25T13:16:36.666Z,9.90
2019-02-25T13:19:07.256Z,9.68
2019-02-25T13:21:37.811Z,10.00
2019-02-25T13:24:09.891Z,10.01
2019-02-25T13:26:40.343Z,10.16
2019-02-25T13:29:10.707Z,9.80
2019-02-25T13:31:41.038Z,10.10
2019-02-25T13:34:11.574Z,10.36
2019-02-25T13:36:42.300Z,10.37
2019-02-25T13:39:13.224Z,10.36
2019-02-25T13:41:43.958Z,10.81
2019-02-25T13:44:14.507Z,10.77
2019-02-25T13:46:45.136Z,11.08
2019-02-25T13:49:15.467Z,10.95
2019-02-25T13:51:45.835Z,10.72
2019-02-25T13:54:16.502Z,10.34
2019-02-25T13:56:46.837Z,10.74
2019-02-25T13:59:17.254Z,10.67
2019-02-25T14:01:47.565Z,10.51
2019-02-25T14:04:18.579Z,11.00
2019-02-25T14:06:49.573Z,10.23
2019-02-25T14:09:19.848Z,9.94
2019-02-25T14:11:50.510Z,10.08
2019-02-25T14:14:21.266Z,9.91
2019-02-25T14:16:51.647Z,9.73
2019-02-25T14:19:21.947Z,9.77
2019-02-25T14:21:52.644Z,9.61
2019-02-25T14:24:23.882Z,9.83
2019-02-25T14:26:54.636Z,9.70
2019-02-25T14:29:26.446Z,8.86
2019-02-25T14:31:57.285Z,9.40
2019-02-25T14:34:27.613Z,9.39
2019-02-25T14:36:59.741Z,9.57
2019-02-25T14:39:32.730Z,9.66
2019-02-25T14:42:04.391Z,9.92
2019-02-25T14:44:35.815Z,10.19
2019-02-25T14:47:19.322Z,10.09
2019-02-25T14:49:40.341Z,10.50
2019-02-25T14:52:11.973Z,10.38
2019-02-25T14:54:42.829Z,10.79
2019-02-25T14:57:13.211Z,11.14
2019-02-25T14:59:43.506Z,10.79
2019-02-25T15:02:13.973Z,10.73
2019-02-25T15:04:44.872Z,10.52
2019-02-25T15:07:16.235Z,10.58
2019-02-25T15:09:46.533Z,10.49
2019-02-25T15:12:17.186Z,10.54
2019-02-25T15:14:47.902Z,10.49
2019-02-25T15:17:19.161Z,10.52
2019-02-25T15:19:49.569Z,10.59
2019-02-25T15:22:20.194Z,10.45
2019-02-25T15:24:52.426Z,10.20
2019-02-25T15:27:22.801Z,10.59
2019-02-25T15:29:53.233Z,10.52
2019-02-25T15:32:23.691Z,10.71
2019-02-25T15:34:55.516Z,10.76
2019-02-25T15:37:26.532Z,10.70
2019-02-25T15:39:56.852Z,10.70
2019-02-25T15:42:29.769Z,10.63
2019-02-25T15:45:01.042Z,9.42
2019-02-25T15:47:31.486Z,10.04
2019-02-25T15:50:04.393Z,10.20
2019-02-25T15:52:40.013Z,9.78
2019-02-25T15:55:13.070Z,8.20
2019-02-25T15:57:42.163Z,8.16
2019-02-25T16:00:14.497Z,8.09
2019-02-25T16:02:44.838Z,8.04
2019-02-25T16:05:15.862Z,7.92
2019-02-25T16:07:49.786Z,7.08
2019-02-25T16:10:19.941Z,6.02
2019-02-25T16:12:51.202Z,4.93
2019-02-25T16:15:22.639Z,4.72
2019-02-25T16:17:53.666Z,4.42
2019-02-25T16:20:25.226Z,3.45
2019-02-25T16:22:56.571Z,3.27
2019-02-25T16:25:29.898Z,2.80
2019-02-25T16:28:00.293Z,2.45
2019-02-25T16:30:30.904Z,2.18
2019-02-25T16:33:02.887Z,2.19
2019-02-25T16:35:34.860Z,2.11
2019-02-25T16:38:07.367Z,2.10
2019-02-25T16:40:40.066Z,2.00
2019-02-25T16:43:12.703Z,2.04
2019-02-25T16:45:45.261Z,2.24
2019-02-25T16:48:17.254Z,2.27
2019-02-25T16:50:47.723Z,2.14
2019-02-25T16:53:20.010Z,1.87
2019-02-25T16:55:51.563Z,1.73
2019-02-25T16:58:21.987Z,1.67
2019-02-25T17:00:56.209Z,1.57
2019-02-25T17:03:24.645Z,1.57
2019-02-25T17:05:55.280Z,1.43
2019-02-25T17:08:26.069Z,1.35
2019-02-25T17:10:59.896Z,1.33
2019-02-25T17:13:32.468Z,1.23
2019-02-25T17:16:03.296Z,1.18
2019-02-25T17:18:33.784Z,1.39
2019-02-25T17:21:05.176Z,1.59
2019-02-25T17:23:38.273Z,1.62
2019-02-25T17:26:10.538Z,1.71
2019-02-25T17:28:40.691Z,1.54
2019-02-25T17:31:11.989Z,1.60
2019-02-25T17:33:43.428Z,1.68
2019-02-25T17:36:14.681Z,1.71
2019-02-25T17:38:47.579Z,1.60
2019-02-25T17:41:18.988Z,1.48
2019-02-25T17:43:49.580Z,1.21
2019-02-25T17:46:19.878Z,1.48
2019-02-25T17:48:50.307Z,1.65
2019-02-25T17:51:22.690Z,1.42
2019-02-25T17:53:54.717Z,1.42
2019-02-25T17:56:26.967Z,1.48
2019-02-25T17:58:59.434Z,1.43
2019-02-25T18:01:30.759Z,1.22
2019-02-25T18:04:02.536Z,0.53
2019-02-25T18:06:33.992Z,0.19
2019-02-25T18:09:06.875Z,-0.06
2019-02-25T18:11:39.083Z,-0.16
2019-02-25T18:14:11.142Z,-0.11
2019-02-25T18:16:45.958Z,-0.25
2019-02-25T18:19:15.908Z,-0.33
2019-02-25T18:21:47.078Z,-0.41
2019-02-25T18:24:17.391Z,-0.58
2019-02-25T18:26:47.975Z,-0.60
2019-02-25T18:29:20.374Z,-0.83
2019-02-25T18:31:50.801Z,-0.85
2019-02-25T18:34:21.475Z,-1.02
2019-02-25T18:36:53.728Z,-0.78
2019-02-25T18:39:25.261Z,-1.03
2019-02-25T18:41:57.233Z,-3.22
2019-02-25T18:44:29.637Z,-1.06
2019-02-25T18:47:00.086Z,-0.73
2019-02-25T18:49:32.522Z,-0.82
2019-02-25T18:52:02.796Z,-0.91
2019-02-25T18:54:33.121Z,-0.68
2019-02-25T18:57:05.393Z,-0.74
2019-02-25T18:59:36.026Z,-1.10
2019-02-25T19:02:08.020Z,-1.06
2019-02-25T19:04:39.678Z,-2.44
2019-02-25T19:07:11.353Z,-0.42
2019-02-25T19:09:43.060Z,-0.36
2019-02-25T19:12:16.482Z,-0.98
2019-02-25T19:14:46.957Z,-0.85
2019-02-25T19:17:17.978Z,-0.77
2019-02-25T19:19:51.510Z,-1.10
2019-02-25T19:22:22.254Z,-0.83
2019-02-25T19:24:52.525Z,-1.13
2019-02-25T19:27:25.013Z,-1.35
2019-02-25T19:29:58.622Z,-1.49
2019-02-25T19:32:27.887Z,-1.28
2019-02-25T19:35:04.040Z,-1.43
2019-02-25T19:37:38.194Z,-1.38
2019-02-25T19:40:14.003Z,-1.09
2019-02-25T19:42:47.308Z,-1.24
2019-02-25T19:45:20.575Z,-1.11
2019-02-25T19:47:55.504Z,-1.07
2019-02-25T19:50:29.899Z,-1.11
2019-02-25T19:53:04.631Z,-0.97
2019-02-25T19:55:36.173Z,-1.02
2019-02-25T19:58:06.765Z,-0.98
2019-02-25T20:00:37.033Z,-1.17
2019-02-25T20:03:07.385Z,-1.63
2019-02-25T20:05:41.132Z,-1.81
2019-02-25T20:08:10.224Z,-1.65
2019-02-25T20:10:40.500Z,-1.54
2019-02-25T20:13:11.364Z,-1.56
2019-02-25T20:15:42.472Z,-1.50
2019-02-25T20:18:15.628Z,-1.50
2019-02-25T20:20:45.843Z,-1.49
2019-02-25T20:23:16.259Z,-1.69
2019-02-25T20:25:48.840Z,-1.70
2019-02-25T20:28:20.718Z,-1.65
2019-02-25T20:30:51.602Z,-1.56
2019-02-25T20:33:29.376Z,-1.24
2019-02-25T20:35:58.383Z,-1.37
2019-02-25T20:38:29.608Z,-1.25
2019-02-25T20:41:02.504Z,-1.05
2019-02-25T20:43:33.494Z,-0.94
2019-02-25T20:46:05.970Z,-0.86
2019-02-25T20:48:36.393Z,-0.98
2019-02-25T20:51:07.754Z,-0.74
2019-02-25T20:53:38.766Z,-0.77
2019-02-25T20:56:09.485Z,-0.86
2019-02-25T20:58:40.185Z,-1.10
2019-02-25T21:01:13.616Z,-1.00
2019-02-25T21:03:46.039Z,-0.93
2019-02-25T21:06:19.486Z,-0.96
2019-02-25T21:08:50.838Z,-0.98
2019-02-25T21:11:21.582Z,-1.14
2019-02-25T21:13:51.900Z,-0.96
2019-02-25T21:16:24.047Z,-1.00
2019-02-25T21:18:55.055Z,-0.85
2019-02-25T21:21:28.214Z,-0.97
2019-02-25T21:24:01.340Z,-1.21
2019-02-25T21:26:31.543Z,-0.91
2019-02-25T21:29:04.644Z,-1.03
2019-02-25T21:31:35.126Z,-1.02
2019-02-25T21:34:06.478Z,-1.06
2019-02-25T21:36:38.165Z,-1.12
2019-02-25T21:39:12.220Z,-1.00
2019-02-25T21:41:44.034Z,-1.29
2019-02-25T21:44:18.914Z,-1.44
2019-02-25T21:46:51.837Z,-1.45
2019-02-25T21:49:20.267Z,-1.28
2019-02-25T21:51:51.875Z,-1.19
2019-02-25T21:54:22.682Z,-1.19
2019-02-25T21:56:53.125Z,-1.16
2019-02-25T21:59:23.524Z,-1.04
2019-02-25T22:01:55.727Z,-1.17
2019-02-25T22:04:26.415Z,-1.07
2019-02-25T22:06:58.101Z,-1.16
2019-02-25T22:09:36.518Z,-1.10
2019-02-25T22:12:01.512Z,-1.14
2019-02-25T22:14:32.276Z,-1.16
2019-02-25T22:17:02.662Z,-1.20
2019-02-25T22:19:35.026Z,-1.37
2019-02-25T22:22:07.092Z,-1.28
2019-02-25T22:24:40.534Z,-1.14
2019-02-25T22:27:11.917Z,-1.19
2019-02-25T22:29:45.168Z,-1.27
2019-02-25T22:32:16.201Z,-1.42
2019-02-25T22:34:46.556Z,-1.28
2019-02-25T22:37:19.372Z,-1.20
2019-02-25T22:39:50.898Z,-1.19
2019-02-25T22:42:21.407Z,-1.27
2019-02-25T22:44:53.886Z,-1.33
2019-02-25T22:47:24.112Z,-1.22
2019-02-25T22:49:54.932Z,-1.50
2019-02-25T22:52:27.194Z,-1.33
2019-02-25T22:54:57.466Z,-1.21
2019-02-25T22:57:29.575Z,-1.39
2019-02-25T23:00:00.530Z,-1.55
2019-02-25T23:02:32.291Z,-1.59
2019-02-25T23:05:02.871Z,-1.62
2019-02-25T23:07:33.562Z,-1.66
2019-02-25T23:10:03.888Z,-1.73
2019-02-25T23:12:34.241Z,-1.73
2019-02-25T23:15:06.099Z,-1.83
2019-02-25T23:17:37.533Z,-1.61
2019-02-25T23:20:09.392Z,-1.45
2019-02-25T23:22:39.823Z,-1.39
2019-02-25T23:25:10.803Z,-1.48
2019-02-25T23:27:41.146Z,-1.48
2019-02-25T23:30:11.812Z,-1.53
2019-02-25T23:32:42.657Z,-1.53
2019-02-25T23:35:15.608Z,-1.36
2019-02-25T23:37:49.049Z,-1.43
2019-02-25T23:40:17.477Z,-1.39
2019-02-25T23:42:49.105Z,-1.26
2019-02-25T23:45:21.250Z,-1.35
2019-02-25T23:47:55.327Z,-1.30
2019-02-25T23:50:25.725Z,-1.24
2019-02-25T23:52:56.108Z,-2.34
2019-02-25T23:55:27.767Z,-1.21
2019-02-25T23:57:58.705Z,-1.37
